Time;durP1;ratioP1;P1;durP2;ratioP2;P2;SDS_P1;SDS_P2;PMS_P1;PMS_P2;Temp;Humidity;BMP_temperature;BMP_pressure;BME280_temperature;BME280_humidity;BME280_pressure;Samples;Min_cycle;Max_cycle;Signal;HPM_P1;HPM_P2
2022/09/09 00:01:53;;;;;;;;;;;;;;;15.24;83.15;100141.91;1685848;85;20195;-73
2022/09/09 00:04:27;;;;;;;;;;;;;;;15.24;83.23;100148.11;1685744;83;20198;-73
2022/09/09 00:07:16;;;;;;;;;;;;;;;15.19;83.23;100147.09;1679859;84;21819;-73
2022/09/09 00:09:48;;;;;;;;;;;;;;;15.16;83.27;100143.47;1658070;85;20190;-73
2022/09/09 00:12:18;;;;;;;;;;;;;;;15.14;83.30;100143.66;1675109;84;20496;-73
2022/09/09 00:14:48;;;;;;;;;;;;;;;15.10;83.33;100141.07;1675428;85;20484;-73
2022/09/09 00:17:20;;;;;;;;;;;;;;;15.04;83.30;100141.91;1675872;85;20203;-73
2022/09/09 00:20:02;;;;;;;;;;;;;;;15.01;83.34;100142.31;1675310;85;21089;-74
2022/09/09 00:22:30;;;;;;;;;;;;;;;14.96;83.36;100138.06;1675757;85;20183;-74
2022/09/09 00:25:11;;;;;;;;;;;;;;;14.93;83.41;100136.63;1675883;85;20198;-74
2022/09/09 00:27:43;;;;;;;;;;;;;;;14.93;83.42;100146.02;1675646;85;20519;-74
2022/09/09 00:30:22;;;;;;;;;;;;;;;14.92;83.43;100151.07;1675593;85;20254;-74
2022/09/09 00:32:54;;;;;;;;;;;;;;;14.90;83.46;100143.75;1657572;85;21146;-74
2022/09/09 00:35:25;;;;;;;;;;;;;;;14.87;83.49;100137.95;1675562;84;20210;-74
2022/09/09 00:37:53;;;;;;;;;;;;;;;14.85;83.49;100145.37;1675688;85;20722;-74
2022/09/09 00:40:36;;;;;;;;;;;;;;;14.87;83.52;100146.02;1656579;85;20726;-73
2022/09/09 00:43:27;;;;;;;;;;;;;;;14.82;83.50;100143.09;1657958;85;20218;-74
2022/09/09 00:46:23;;;;;;;;;;;;;;;14.78;83.56;100144.53;1675697;84;21230;-73
2022/09/09 00:49:13;;;;;;;;;;;;;;;14.73;83.58;100148.36;1675473;85;20190;-73
2022/09/09 00:51:50;;;;;;;;;;;;;;;14.70;83.59;100151.45;1648602;85;20481;-73
2022/09/09 00:54:54;;;;;;;;;;;;;;;14.64;83.63;100158.94;1669686;85;20243;-73
2022/09/09 00:57:31;;;;;;;;;;;;;;;14.61;83.68;100152.64;1675789;85;20203;-73
2022/09/09 01:00:20;;;;;;;;;;;;;;;14.57;83.70;100154.07;1656899;84;22040;-73
2022/09/09 01:03:05;;;;;;;;;;;;;;;14.56;83.74;100159.15;1675831;85;20238;-74
2022/09/09 01:06:03;;;;;;;;;;;;;;;14.54;83.74;100161.19;1675861;85;20208;-74
2022/09/09 01:08:55;;;;;;;;;;;;;;;14.52;83.78;100159.23;1678877;84;20203;-74
2022/09/09 01:11:35;;;;;;;;;;;;;;;14.47;83.79;100159.31;1675987;85;20212;-73
2022/09/09 01:14:25;;;;;;;;;;;;;;;14.45;83.81;100157.36;1675514;85;21332;-73
2022/09/09 01:16:54;;;;;;;;;;;;;;;14.43;83.83;100158.05;1675736;84;20219;-73
2022/09/09 01:19:30;;;;;;;;;;;;;;;14.43;83.86;100167.95;1675812;85;20487;-73
2022/09/09 01:22:12;;;;;;;;;;;;;;;14.40;83.88;100169.20;1675111;85;20700;-73
2022/09/09 01:24:41;;;;;;;;;;;;;;;14.39;83.93;100179.61;1650720;84;20195;-73
2022/09/09 01:27:06;;;;;;;;;;;;;;;14.35;83.96;100174.86;1675925;84;21764;-73
2022/09/09 01:29:33;;;;;;;;;;;;;;;14.34;83.96;100178.56;1675525;85;38417;-73
2022/09/09 01:32:00;;;;;;;;;;;;;;;14.33;84.00;100176.36;1675229;85;20253;-73
2022/09/09 01:34:37;;;;;;;;;;;;;;;14.34;84.02;100173.20;1675977;84;20648;-73
2022/09/09 01:37:05;;;;;;;;;;;;;;;14.31;84.07;100175.73;1672298;84;20788;-73
2022/09/09 01:39:33;;;;;;;;;;;;;;;14.28;84.09;100174.80;1660422;85;21089;-73
2022/09/09 01:41:58;;;;;;;;;;;;;;;14.28;84.11;100176.14;1677175;85;20165;-74
2022/09/09 01:44:24;;;;;;;;;;;;;;;14.26;84.14;100172.81;1656025;85;20221;-74
2022/09/09 01:46:50;;;;;;;;;;;;;;;14.24;84.17;100177.56;1676885;85;20713;-74
2022/09/09 01:49:16;;;;;;;;;;;;;;;14.23;84.18;100174.56;1663476;85;20256;-74
2022/09/09 01:51:42;;;;;;;;;;;;;;;14.23;84.23;100178.58;1675638;85;21845;-74
2022/09/09 01:54:08;;;;;;;;;;;;;;;14.20;84.24;100178.98;1675692;85;20230;-74
2022/09/09 01:56:53;;;;;;;;;;;;;;;14.19;84.27;100180.00;1676343;85;20249;-74
2022/09/09 01:59:37;;;;;;;;;;;;;;;14.17;84.29;100183.41;1675721;85;20198;-74
2022/09/09 02:02:10;;;;;;;;;;;;;;;14.18;84.32;100182.90;1675794;85;20500;-74
2022/09/09 02:04:48;;;;;;;;;;;;;;;14.17;84.35;100186.09;1675265;84;22002;-74
2022/09/09 02:07:26;;;;;;;;;;;;;;;14.14;84.35;100184.31;1675592;83;20238;-73
2022/09/09 02:10:01;;;;;;;;;;;;;;;14.10;84.37;100181.20;1644277;85;20509;-74
2022/09/09 02:12:27;;;;;;;;;;;;;;;14.08;84.42;100185.92;1658600;85;20195;-73
2022/09/09 02:14:56;;;;;;;;;;;;;;;14.05;84.45;100189.00;1675675;84;20812;-73
2022/09/09 02:17:25;;;;;;;;;;;;;;;14.01;84.44;100193.09;1675752;84;21147;-73
2022/09/09 02:19:55;;;;;;;;;;;;;;;13.96;84.46;100193.70;1674063;85;21193;-73
2022/09/09 02:22:22;;;;;;;;;;;;;;;13.94;84.47;100188.20;1675779;84;20210;-73
2022/09/09 02:24:48;;;;;;;;;;;;;;;13.93;84.49;100195.95;1675870;85;20190;-73
2022/09/09 02:27:14;;;;;;;;;;;;;;;13.90;84.51;100199.00;1675773;85;20206;-73
2022/09/09 02:29:41;;;;;;;;;;;;;;;13.88;84.52;100206.42;1675771;85;21074;-73
2022/09/09 02:32:14;;;;;;;;;;;;;;;13.88;84.55;100210.44;1675604;85;20195;-73
2022/09/09 02:34:43;;;;;;;;;;;;;;;13.86;84.56;100204.47;1675664;85;20542;-73
2022/09/09 02:37:09;;;;;;;;;;;;;;;13.86;84.60;100203.92;1669089;85;20190;-73
2022/09/09 02:39:35;;;;;;;;;;;;;;;13.84;84.62;100206.49;1675942;85;20210;-73
2022/09/09 02:42:04;;;;;;;;;;;;;;;13.83;84.63;100204.31;1675770;85;21030;-73
2022/09/09 02:44:29;;;;;;;;;;;;;;;13.79;84.62;100204.92;1676278;85;20172;-73
2022/09/09 02:47:28;;;;;;;;;;;;;;;13.73;84.66;100203.00;1676388;85;20210;-73
2022/09/09 02:50:26;;;;;;;;;;;;;;;13.66;84.67;100204.80;1675667;85;20718;-73
2022/09/09 02:53:05;;;;;;;;;;;;;;;13.61;84.69;100207.26;1668138;84;20559;-73
2022/09/09 02:55:39;;;;;;;;;;;;;;;13.54;84.71;100209.05;1659447;85;21072;-73
2022/09/09 02:58:07;;;;;;;;;;;;;;;13.48;84.74;100211.98;1674393;85;20189;-74
2022/09/09 03:00:35;;;;;;;;;;;;;;;13.45;84.79;100215.88;1656546;85;20232;-73
2022/09/09 03:03:04;;;;;;;;;;;;;;;13.41;84.79;100213.77;1676024;85;20465;-73
2022/09/09 03:05:31;;;;;;;;;;;;;;;13.37;84.79;100216.00;1676225;85;20242;-73
2022/09/09 03:07:57;;;;;;;;;;;;;;;13.33;84.85;100212.08;1676468;83;21092;-73
2022/09/09 03:10:23;;;;;;;;;;;;;;;13.28;84.86;100221.19;1656088;85;20349;-73
2022/09/09 03:12:50;;;;;;;;;;;;;;;13.25;84.87;100219.41;1675543;85;20241;-73
2022/09/09 03:15:16;;;;;;;;;;;;;;;13.21;84.88;100221.63;1675612;85;20212;-73
2022/09/09 03:17:42;;;;;;;;;;;;;;;13.21;84.92;100220.30;1675812;85;20484;-73
2022/09/09 03:20:08;;;;;;;;;;;;;;;13.19;84.95;100221.01;1675746;85;21078;-73
2022/09/09 03:22:34;;;;;;;;;;;;;;;13.19;84.95;100226.37;1675683;85;20201;-73
2022/09/09 03:25:01;;;;;;;;;;;;;;;13.18;85.00;100228.72;1675736;85;20468;-73
2022/09/09 03:27:27;;;;;;;;;;;;;;;13.21;85.02;100231.52;1675671;85;20230;-73
2022/09/09 03:29:53;;;;;;;;;;;;;;;13.21;85.02;100232.84;1675801;84;20233;-73
2022/09/09 03:32:19;;;;;;;;;;;;;;;13.20;85.07;100231.19;1675799;85;21188;-73
2022/09/09 03:34:47;;;;;;;;;;;;;;;13.18;85.05;100228.72;1675819;85;20183;-73
2022/09/09 03:37:13;;;;;;;;;;;;;;;13.15;85.07;100226.92;1675698;85;20499;-73
2022/09/09 03:39:38;;;;;;;;;;;;;;;13.09;85.07;100224.48;1675762;85;20593;-73
2022/09/09 03:42:05;;;;;;;;;;;;;;;13.07;85.10;100221.15;1675621;84;20194;-73
2022/09/09 03:44:31;;;;;;;;;;;;;;;13.03;85.10;100222.55;1675705;84;21017;-73
2022/09/09 03:46:57;;;;;;;;;;;;;;;13.00;85.12;100225.61;1675807;85;20202;-73
2022/09/09 03:49:23;;;;;;;;;;;;;;;12.98;85.16;100231.67;1675721;85;20268;-73
2022/09/09 03:51:49;;;;;;;;;;;;;;;12.99;85.18;100222.59;1675658;84;20552;-73
2022/09/09 03:54:15;;;;;;;;;;;;;;;12.99;85.19;100227.45;1675700;85;20222;-73
2022/09/09 03:56:41;;;;;;;;;;;;;;;13.00;85.21;100236.31;1675622;85;21100;-73
2022/09/09 03:59:08;;;;;;;;;;;;;;;13.02;85.22;100238.28;1675626;85;20305;-73
2022/09/09 04:01:34;;;;;;;;;;;;;;;13.01;85.23;100236.14;1675724;85;20207;-73
2022/09/09 04:04:02;;;;;;;;;;;;;;;13.02;85.24;100238.28;1659688;85;20218;-73
2022/09/09 04:06:28;;;;;;;;;;;;;;;13.02;85.25;100244.97;1672884;84;20212;-73
2022/09/09 04:08:55;;;;;;;;;;;;;;;12.98;85.23;100242.38;1675683;85;21128;-73
2022/09/09 04:11:21;;;;;;;;;;;;;;;12.97;85.24;100246.06;1675234;85;20503;-73
2022/09/09 04:13:47;;;;;;;;;;;;;;;12.95;85.29;100238.20;1675745;85;20198;-73
2022/09/09 04:16:13;;;;;;;;;;;;;;;12.95;85.29;100246.23;1675409;85;20218;-73
2022/09/09 04:18:39;;;;;;;;;;;;;;;12.98;85.29;100239.70;1656213;85;20886;-73
2022/09/09 04:21:06;;;;;;;;;;;;;;;12.98;85.30;100238.36;1675657;85;21751;-73
2022/09/09 04:23:33;;;;;;;;;;;;;;;13.00;85.33;100247.02;1675500;84;20212;-73
2022/09/09 04:26:00;;;;;;;;;;;;;;;12.99;85.30;100246.19;1675527;85;20199;-73
2022/09/09 04:28:28;;;;;;;;;;;;;;;12.99;85.31;100241.34;1675669;84;20199;-73
2022/09/09 04:30:55;;;;;;;;;;;;;;;13.00;85.32;100247.02;1675046;85;20187;-73
2022/09/09 04:33:21;;;;;;;;;;;;;;;13.01;85.32;100254.05;1675592;85;21104;-73
2022/09/09 04:35:49;;;;;;;;;;;;;;;13.03;85.33;100246.64;1675613;85;20822;-73
2022/09/09 04:38:16;;;;;;;;;;;;;;;13.07;85.34;100254.62;1675333;84;20187;-73
2022/09/09 04:40:43;;;;;;;;;;;;;;;13.10;85.33;100252.92;1675360;85;20235;-73
2022/09/09 04:43:09;;;;;;;;;;;;;;;13.13;85.34;100256.56;1675769;85;20535;-73
2022/09/09 04:45:35;;;;;;;;;;;;;;;13.15;85.35;100253.20;1675882;85;21103;-73
2022/09/09 04:48:02;;;;;;;;;;;;;;;13.18;85.38;100256.00;1675798;84;20285;-73
2022/09/09 04:50:28;;;;;;;;;;;;;;;13.23;85.37;100257.07;1675787;85;20191;-73
2022/09/09 04:52:54;;;;;;;;;;;;;;;13.49;85.55;100266.72;1675283;84;20251;-73
2022/09/09 04:55:20;;;;;;;;;;;;;;;14.57;86.02;100257.39;1674939;84;20870;-73
2022/09/09 04:57:45;;;;;;;;;;;;;;;15.67;85.88;100264.66;1676224;84;21152;-73
2022/09/09 05:00:13;;;;;;;;;;;;;;;16.77;85.54;100263.38;1675179;84;20198;-74
2022/09/09 05:02:40;;;;;;;;;;;;;;;17.68;84.93;100253.11;1674860;85;20200;-74
2022/09/09 05:05:07;;;;;;;;;;;;;;;18.55;84.42;100257.48;1675018;85;20194;-74
2022/09/09 05:07:33;;;;;;;;;;;;;;;19.32;83.93;100250.76;1674646;84;20195;-74
2022/09/09 05:09:59;;;;;;;;;;;;;;;20.04;83.37;100255.58;1683076;84;21932;-74
2022/09/09 05:12:25;;;;;;;;;;;;;;;20.64;82.58;100252.61;1675462;85;20293;-74
2022/09/09 05:14:54;;;;;;;;;;;;;;;21.15;81.74;100254.46;1675660;84;20218;-74
2022/09/09 05:17:20;;;;;;;;;;;;;;;21.64;80.76;100256.44;1675367;85;20187;-74
2022/09/09 05:19:46;;;;;;;;;;;;;;;21.96;79.75;100254.55;1675757;85;20210;-74
2022/09/09 05:22:12;;;;;;;;;;;;;;;22.22;79.01;100255.23;1675643;84;21181;-74
2022/09/09 05:24:38;;;;;;;;;;;;;;;22.52;78.25;100256.20;1675533;85;20265;-74
2022/09/09 05:27:05;;;;;;;;;;;;;;;22.65;77.21;100257.19;1675592;84;20212;-74
2022/09/09 05:29:35;;;;;;;;;;;;;;;22.37;75.67;100259.00;1675309;85;20203;-74
2022/09/09 05:32:01;;;;;;;;;;;;;;;21.89;75.35;100261.47;1675751;84;20179;-74
2022/09/09 05:34:28;;;;;;;;;;;;;;;21.43;75.59;100264.50;1675450;85;21206;-74
2022/09/09 05:36:54;;;;;;;;;;;;;;;21.02;76.00;100269.11;1675626;84;20432;-74
2022/09/09 05:39:20;;;;;;;;;;;;;;;20.67;76.19;100273.80;1675433;85;20230;-74
2022/09/09 05:41:46;;;;;;;;;;;;;;;20.52;76.12;100272.94;1674608;85;20211;-74
2022/09/09 05:44:12;;;;;;;;;;;;;;;20.46;76.16;100279.84;1675709;84;20205;-74
2022/09/09 05:46:38;;;;;;;;;;;;;;;20.41;76.03;100275.95;1675488;84;22041;-74
2022/09/09 05:49:05;;;;;;;;;;;;;;;20.46;75.97;100275.78;1675661;84;20217;-74
2022/09/09 05:51:31;;;;;;;;;;;;;;;20.49;75.90;100272.06;1675648;84;20491;-75
2022/09/09 05:54:00;;;;;;;;;;;;;;;20.50;75.67;100273.72;1675831;84;20266;-75
2022/09/09 05:56:27;;;;;;;;;;;;;;;20.52;75.52;100284.30;1675627;85;20216;-75
2022/09/09 05:58:53;;;;;;;;;;;;;;;20.58;75.44;100280.67;1675381;85;21467;-75
2022/09/09 06:01:22;;;;;;;;;;;;;;;20.61;75.26;100283.72;1673739;85;20191;-75
2022/09/09 06:03:48;;;;;;;;;;;;;;;20.55;75.11;100279.80;1648509;85;20234;-74
2022/09/09 06:06:17;;;;;;;;;;;;;;;20.55;75.09;100279.80;1674540;85;20183;-74
2022/09/09 06:08:46;;;;;;;;;;;;;;;20.56;74.98;100281.42;1676637;84;20222;-75
2022/09/09 06:11:17;;;;;;;;;;;;;;;20.54;74.67;100286.27;1680259;84;21432;-75
2022/09/09 06:13:43;;;;;;;;;;;;;;;20.47;74.61;100286.39;1682137;84;20482;-75
2022/09/09 06:16:13;;;;;;;;;;;;;;;20.19;74.47;100281.66;1681356;84;20284;-75
2022/09/09 06:18:39;;;;;;;;;;;;;;;19.99;74.50;100289.81;1687880;84;20169;-74
2022/09/09 06:21:07;;;;;;;;;;;;;;;19.83;74.35;100284.56;1681814;84;20178;-75
2022/09/09 06:23:34;;;;;;;;;;;;;;;19.81;74.35;100278.02;1676040;84;21186;-75
2022/09/09 06:26:05;;;;;;;;;;;;;;;19.77;74.24;100278.74;1681050;85;20703;-75
2022/09/09 06:28:34;;;;;;;;;;;;;;;19.85;74.33;100275.67;1681659;85;20190;-76
2022/09/09 06:31:00;;;;;;;;;;;;;;;20.07;74.20;100272.70;1680734;84;20191;-76
2022/09/09 06:33:27;;;;;;;;;;;;;;;20.29;74.08;100269.73;1679721;84;20169;-76
2022/09/09 06:35:54;;;;;;;;;;;;;;;20.33;73.76;100270.92;1682757;84;21240;-76
2022/09/09 06:38:19;;;;;;;;;;;;;;;20.20;73.69;100268.39;1665337;84;20199;-75
2022/09/09 06:40:51;;;;;;;;;;;;;;;20.33;73.54;100270.92;1671411;84;20253;-75
2022/09/09 06:43:17;;;;;;;;;;;;;;;20.33;73.41;100272.27;1680408;84;20214;-75
2022/09/09 06:45:43;;;;;;;;;;;;;;;20.31;73.29;100273.55;1661843;84;20189;-75
2022/09/09 06:48:08;;;;;;;;;;;;;;;20.36;73.31;100273.15;1680202;85;21355;-75
2022/09/09 06:50:35;;;;;;;;;;;;;;;20.47;73.25;100274.20;1676241;85;20291;-76
2022/09/09 06:53:02;;;;;;;;;;;;;;;20.71;73.20;100272.27;1679389;85;20138;-76
2022/09/09 06:55:28;;;;;;;;;;;;;;;20.73;72.86;100270.95;1679004;84;20952;-76
2022/09/09 06:57:54;;;;;;;;;;;;;;;20.77;72.78;100275.38;1653710;85;20274;-76
2022/09/09 07:00:19;;;;;;;;;;;;;;;20.66;72.57;100270.27;1663259;85;21494;-76
2022/09/09 07:02:46;;;;;;;;;;;;;;;20.78;72.46;100267.53;1679918;84;20202;-76
2022/09/09 07:05:12;;;;;;;;;;;;;;;20.96;72.29;100274.16;1679644;85;20201;-75
2022/09/09 07:07:38;;;;;;;;;;;;;;;20.90;72.12;100271.02;1681582;84;21016;-76
2022/09/09 07:10:04;;;;;;;;;;;;;;;20.82;71.94;100270.89;1674901;85;20894;-76
2022/09/09 07:12:30;;;;;;;;;;;;;;;20.79;71.73;100277.33;1674643;85;21572;-76
2022/09/09 07:14:56;;;;;;;;;;;;;;;20.81;71.53;100276.55;1674719;85;20791;-76
2022/09/09 07:17:22;;;;;;;;;;;;;;;20.86;71.42;100275.30;1672613;84;20241;-76
2022/09/09 07:19:48;;;;;;;;;;;;;;;20.91;71.32;100275.39;1672890;85;20507;-76
2022/09/09 07:22:14;;;;;;;;;;;;;;;20.97;71.10;100283.11;1674549;85;20206;-76
2022/09/09 07:24:40;;;;;;;;;;;;;;;21.03;70.96;100280.27;1661940;85;21113;-76
2022/09/09 07:27:06;;;;;;;;;;;;;;;21.01;70.81;100278.30;1675365;85;20230;-76
2022/09/09 07:29:32;;;;;;;;;;;;;;;21.03;70.55;100277.55;1675389;85;20233;-76
2022/09/09 07:31:59;;;;;;;;;;;;;;;21.12;70.49;100283.42;1675194;84;20473;-76
2022/09/09 07:34:25;;;;;;;;;;;;;;;21.12;70.39;100278.83;1674717;85;20219;-76
2022/09/09 07:36:51;;;;;;;;;;;;;;;21.22;70.26;100283.09;1675160;85;21689;-76
2022/09/09 07:39:17;;;;;;;;;;;;;;;21.40;70.02;100282.07;1674928;84;20530;-76
2022/09/09 07:41:44;;;;;;;;;;;;;;;21.52;69.83;100276.59;1675954;85;20600;-76
2022/09/09 07:44:12;;;;;;;;;;;;;;;21.56;69.69;100284.01;1675451;84;21201;-76
2022/09/09 07:46:41;;;;;;;;;;;;;;;21.52;69.47;100279.30;1675587;85;20416;-76
2022/09/09 07:49:08;;;;;;;;;;;;;;;21.48;69.32;100278.14;1675500;85;21698;-76
2022/09/09 07:51:35;;;;;;;;;;;;;;;21.53;69.19;100283.67;1675313;85;20195;-77
2022/09/09 07:54:04;;;;;;;;;;;;;;;21.67;69.15;100283.66;1675699;85;20499;-78
2022/09/09 07:56:30;;;;;;;;;;;;;;;21.78;68.82;100288.99;1675820;85;20550;-78
2022/09/09 07:58:56;;;;;;;;;;;;;;;21.81;68.77;100293.92;1675650;85;20222;-78
2022/09/09 08:01:24;;;;;;;;;;;;;;;21.87;68.60;100290.78;1675898;85;21738;-78
2022/09/09 08:03:58;;;;;;;;;;;;;;;21.71;68.38;100295.67;1670234;85;20194;-78
2022/09/09 08:06:24;;;;;;;;;;;;;;;21.58;68.24;100298.67;1673850;85;20161;-78
2022/09/09 08:08:50;;;;;;;;;;;;;;;21.57;68.20;100297.05;1668696;84;20585;-78
2022/09/09 08:11:17;;;;;;;;;;;;;;;21.40;67.99;100304.60;1664002;85;20312;-78
2022/09/09 08:13:43;;;;;;;;;;;;;;;21.25;68.03;100301.59;1675501;84;22403;-78
2022/09/09 08:16:15;;;;;;;;;;;;;;;21.36;68.00;100295.30;1675417;84;20547;-78
2022/09/09 08:18:41;;;;;;;;;;;;;;;21.55;68.01;100295.09;1675192;85;20195;-78
2022/09/09 08:21:12;;;;;;;;;;;;;;;21.69;67.93;100297.27;1669104;85;20685;-78
2022/09/09 08:23:41;;;;;;;;;;;;;;;21.69;67.80;100301.87;1671642;85;20477;-78
2022/09/09 08:26:15;;;;;;;;;;;;;;;21.76;67.79;100300.64;1674679;84;22499;-78
2022/09/09 08:28:41;;;;;;;;;;;;;;;21.86;67.64;100301.34;1674429;85;20191;-78
2022/09/09 08:31:13;;;;;;;;;;;;;;;21.90;67.61;100301.17;1675531;85;20190;-78
2022/09/09 08:33:41;;;;;;;;;;;;;;;21.97;67.51;100303.20;1675220;85;20617;-78
2022/09/09 08:36:08;;;;;;;;;;;;;;;22.03;67.36;100300.84;1674577;84;20191;-78
2022/09/09 08:38:34;;;;;;;;;;;;;;;22.08;67.15;100304.19;1675439;85;21682;-78
2022/09/09 08:41:21;;;;;;;;;;;;;;;22.15;67.13;100306.20;1675371;85;20692;-78
2022/09/09 08:43:47;;;;;;;;;;;;;;;22.19;66.87;100305.46;1675604;84;20471;-78
2022/09/09 08:46:23;;;;;;;;;;;;;;;22.15;66.83;100308.38;1675409;85;20666;-78
2022/09/09 08:48:58;;;;;;;;;;;;;;;22.21;66.71;100307.38;1675588;85;20206;-78
2022/09/09 08:51:26;;;;;;;;;;;;;;;22.15;66.51;100307.03;1675629;84;21695;-79
2022/09/09 08:53:53;;;;;;;;;;;;;;;22.25;66.39;100307.71;1675498;85;20371;-78
2022/09/09 08:56:24;;;;;;;;;;;;;;;22.31;66.07;100306.17;1675527;85;20191;-78
2022/09/09 08:58:51;;;;;;;;;;;;;;;22.30;65.93;100299.12;1675535;85;20613;-78
2022/09/09 09:01:26;;;;;;;;;;;;;;;22.39;65.82;100296.78;1675601;85;20688;-78
2022/09/09 09:04:24;;;;;;;;;;;;;;;22.55;65.72;100295.12;1675031;85;22388;-79
2022/09/09 09:07:09;;;;;;;;;;;;;;;22.62;65.46;100301.20;1663844;84;20748;-78
2022/09/09 09:10:04;;;;;;;;;;;;;;;22.45;65.19;100293.63;1662405;85;20141;-78
2022/09/09 09:12:34;;;;;;;;;;;;;;;22.38;64.94;100300.03;1666120;84;21446;-78
2022/09/09 09:14:59;;;;;;;;;;;;;;;22.38;64.75;100301.92;1682857;84;20210;-78
2022/09/09 09:17:27;;;;;;;;;;;;;;;22.48;64.62;100302.63;1682449;85;21872;-78
2022/09/09 09:19:53;;;;;;;;;;;;;;;22.55;64.41;100297.84;1691473;84;20172;-79
2022/09/09 09:22:22;;;;;;;;;;;;;;;22.62;64.32;100301.20;1680126;83;20145;-78
2022/09/09 09:24:54;;;;;;;;;;;;;;;22.74;64.16;100300.56;1681853;85;21430;-79
2022/09/09 09:27:37;;;;;;;;;;;;;;;22.75;63.94;100303.58;1682775;83;20130;-78
2022/09/09 09:30:15;;;;;;;;;;;;;;;22.88;63.79;100305.91;1681985;85;21941;-78
2022/09/09 09:32:41;;;;;;;;;;;;;;;22.94;63.56;100308.97;1683448;85;20191;-78
2022/09/09 09:35:09;;;;;;;;;;;;;;;23.04;63.43;100302.33;1656247;85;20447;-78
2022/09/09 09:37:35;;;;;;;;;;;;;;;23.08;63.26;100303.44;1656095;83;20622;-78
2022/09/09 09:40:13;;;;;;;;;;;;;;;23.09;63.03;100303.73;1682500;85;20182;-78
2022/09/09 09:42:51;;;;;;;;;;;;;;;22.87;62.70;100309.70;1681850;85;21749;-78
2022/09/09 09:45:20;;;;;;;;;;;;;;;22.71;62.58;100313.30;1682899;85;20207;-79
2022/09/09 09:47:46;;;;;;;;;;;;;;;22.77;62.59;100310.93;1682665;84;20165;-78
2022/09/09 09:50:16;;;;;;;;;;;;;;;22.86;62.39;100313.52;1683238;85;20551;-79
2022/09/09 09:52:44;;;;;;;;;;;;;;;23.00;62.25;100312.06;1683048;84;20190;-78
2022/09/09 09:55:13;;;;;;;;;;;;;;;23.10;61.94;100312.19;1683173;85;21771;-78
2022/09/09 09:57:39;;;;;;;;;;;;;;;23.12;61.81;100314.09;1683189;85;20522;-78
2022/09/09 10:00:20;;;;;;;;;;;;;;;23.01;61.76;100311.53;1683194;85;20233;-78
2022/09/09 10:02:47;;;;;;;;;;;;;;;22.94;61.73;100308.17;1683271;84;20692;-78
2022/09/09 10:05:18;;;;;;;;;;;;;;;22.94;61.59;100315.77;1683397;83;20198;-78
2022/09/09 10:07:45;;;;;;;;;;;;;;;22.98;61.58;100314.20;1683114;84;22006;-78
2022/09/09 10:10:15;;;;;;;;;;;;;;;23.00;61.53;100317.50;1663306;85;20489;-78
2022/09/09 10:13:03;;;;;;;;;;;;;;;23.04;61.46;100318.64;1682001;85;20210;-78
2022/09/09 10:15:44;;;;;;;;;;;;;;;23.20;61.42;100321.82;1683058;85;20627;-78
2022/09/09 10:18:29;;;;;;;;;;;;;;;23.35;61.16;100325.27;1683160;84;20126;-79
2022/09/09 10:21:15;;;;;;;;;;;;;;;23.38;60.86;100326.11;1681729;85;21831;-78
2022/09/09 10:24:08;;;;;;;;;;;;;;;23.27;60.73;100314.81;1682824;85;20188;-79
2022/09/09 10:26:46;;;;;;;;;;;;;;;23.17;60.74;100314.17;1650390;85;20202;-78
2022/09/09 10:29:41;;;;;;;;;;;;;;;23.28;60.75;100308.30;1682903;85;20688;-78
2022/09/09 10:32:32;;;;;;;;;;;;;;;23.36;60.65;100310.02;1683163;83;20218;-78
2022/09/09 10:35:14;;;;;;;;;;;;;;;23.15;60.30;100318.23;1683082;85;21954;-79
2022/09/09 10:37:55;;;;;;;;;;;;;;;22.94;60.40;100314.41;1683083;85;20462;-79
2022/09/09 10:40:26;;;;;;;;;;;;;;;23.09;60.38;100310.53;1682325;84;20190;-78
2022/09/09 10:42:55;;;;;;;;;;;;;;;23.32;60.28;100310.27;1683058;85;20625;-79
2022/09/09 10:45:34;;;;;;;;;;;;;;;23.33;59.97;100309.17;1683070;85;20207;-79
2022/09/09 10:48:16;;;;;;;;;;;;;;;23.27;59.83;100317.00;1683173;85;21731;-78
2022/09/09 10:50:47;;;;;;;;;;;;;;;23.10;59.82;100316.80;1683150;84;20661;-78
2022/09/09 10:53:32;;;;;;;;;;;;;;;23.02;59.96;100315.34;1682932;83;20226;-78
2022/09/09 10:56:01;;;;;;;;;;;;;;;23.07;59.94;100314.05;1679615;84;20742;-77
2022/09/09 10:58:40;;;;;;;;;;;;;;;23.26;59.85;100316.71;1669360;85;20187;-77
2022/09/09 11:01:18;;;;;;;;;;;;;;;23.32;59.71;100317.61;1682741;84;21661;-77
2022/09/09 11:03:45;;;;;;;;;;;;;;;23.35;59.52;100320.64;1681103;85;20338;-77
2022/09/09 11:06:16;;;;;;;;;;;;;;;23.50;59.45;100311.03;1683125;84;20178;-77
2022/09/09 11:08:42;;;;;;;;;;;;;;;23.63;59.21;100314.16;1672430;84;20687;-77
2022/09/09 11:11:19;;;;;;;;;;;;;;;23.73;59.06;100314.78;1661425;84;20266;-76
2022/09/09 11:14:04;;;;;;;;;;;;;;;23.61;58.92;100311.42;1675062;84;21936;-76
2022/09/09 11:16:51;;;;;;;;;;;;;;;23.44;58.74;100318.30;1675167;85;20133;-77
2022/09/09 11:19:38;;;;;;;;;;;;;;;23.26;58.66;100321.33;1658625;85;20455;-76
2022/09/09 11:22:07;;;;;;;;;;;;;;;23.23;58.55;100314.50;1654443;85;20835;-76
2022/09/09 11:24:41;;;;;;;;;;;;;;;23.14;58.43;100319.30;1674180;84;20195;-76
2022/09/09 11:27:39;;;;;;;;;;;;;;;23.26;58.51;100316.71;1673783;84;21790;-76
2022/09/09 11:30:18;;;;;;;;;;;;;;;23.51;58.42;100314.01;1673692;85;20197;-76
2022/09/09 11:32:56;;;;;;;;;;;;;;;23.66;58.29;100323.70;1671386;85;20226;-76
2022/09/09 11:35:49;;;;;;;;;;;;;;;23.72;58.07;100312.59;1665679;85;20619;-76
2022/09/09 11:38:28;;;;;;;;;;;;;;;23.91;57.94;100313.05;1660044;85;20439;-76
2022/09/09 11:40:59;;;;;;;;;;;;;;;24.03;57.40;100310.95;1655506;85;22591;-76
2022/09/09 11:43:53;;;;;;;;;;;;;;;23.99;57.29;100307.12;1665521;85;20207;-76
2022/09/09 11:46:22;;;;;;;;;;;;;;;24.04;57.22;100299.52;1660796;85;20492;-77
2022/09/09 11:49:01;;;;;;;;;;;;;;;24.09;57.13;100294.95;1665964;84;20790;-77
2022/09/09 11:51:29;;;;;;;;;;;;;;;24.07;56.94;100295.73;1674968;84;20160;-77
2022/09/09 11:54:03;;;;;;;;;;;;;;;24.06;56.90;100294.11;1673142;85;21889;-77
2022/09/09 11:56:33;;;;;;;;;;;;;;;24.14;56.79;100294.17;1674767;85;20138;-76
2022/09/09 11:59:03;;;;;;;;;;;;;;;24.06;56.67;100294.11;1668366;85;20219;-76
2022/09/09 12:01:34;;;;;;;;;;;;;;;24.18;56.66;100294.76;1672999;85;20756;-76
2022/09/09 12:04:13;;;;;;;;;;;;;;;24.23;56.58;100293.98;1672399;85;20199;-76
2022/09/09 12:06:46;;;;;;;;;;;;;;;24.24;56.45;100290.98;1675890;85;22566;-76
2022/09/09 12:09:28;;;;;;;;;;;;;;;24.12;56.18;100290.33;1663668;85;20252;-76
2022/09/09 12:12:13;;;;;;;;;;;;;;;24.27;56.08;100292.38;1671117;84;20249;-76
2022/09/09 12:14:46;;;;;;;;;;;;;;;24.29;55.73;100297.84;1665273;85;20613;-76
2022/09/09 12:17:18;;;;;;;;;;;;;;;24.32;55.50;100293.22;1674288;85;20186;-76
2022/09/09 12:19:45;;;;;;;;;;;;;;;24.28;55.25;100289.38;1675532;85;21818;-76
2022/09/09 12:22:21;;;;;;;;;;;;;;;24.17;55.01;100287.66;1674916;85;20878;-76
2022/09/09 12:24:50;;;;;;;;;;;;;;;23.96;54.81;100285.03;1675295;85;20541;-76
2022/09/09 12:27:32;;;;;;;;;;;;;;;23.96;54.73;100279.58;1675707;85;20764;-76
2022/09/09 12:30:04;;;;;;;;;;;;;;;24.05;54.65;100284.28;1675594;85;20191;-76
2022/09/09 12:32:30;;;;;;;;;;;;;;;23.91;54.31;100284.44;1656174;85;21846;-75
2022/09/09 12:34:59;;;;;;;;;;;;;;;23.85;54.30;100278.11;1675464;84;20214;-76
2022/09/09 12:37:41;;;;;;;;;;;;;;;23.96;54.35;100279.02;1667394;85;20166;-75
2022/09/09 12:40:22;;;;;;;;;;;;;;;23.96;54.19;100274.93;1666854;85;20699;-76
2022/09/09 12:42:48;;;;;;;;;;;;;;;23.90;54.18;100275.98;1671999;85;20522;-76
2022/09/09 12:45:21;;;;;;;;;;;;;;;23.99;54.23;100282.61;1667695;84;21771;-76
2022/09/09 12:47:58;;;;;;;;;;;;;;;24.14;54.14;100288.19;1675641;84;20203;-76
2022/09/09 12:50:25;;;;;;;;;;;;;;;24.21;54.11;100293.41;1675462;85;20131;-76
2022/09/09 12:52:53;;;;;;;;;;;;;;;24.14;53.89;100288.19;1675338;84;20568;-77
2022/09/09 12:55:25;;;;;;;;;;;;;;;23.96;53.84;100279.02;1675024;85;20138;-76
2022/09/09 12:57:50;;;;;;;;;;;;;;;23.81;53.83;100280.28;1675763;84;21807;-76